createdAt,value
2019-03-31T00:02:07.488Z,4.47
2019-03-31T00:04:39.718Z,4.50
2019-03-31T00:07:12.087Z,4.43
2019-03-31T00:09:44.472Z,4.46
2019-03-31T00:12:16.811Z,4.47
2019-03-31T00:14:48.995Z,4.43
2019-03-31T00:17:22.515Z,4.45
2019-03-31T00:19:55.270Z,4.40
2019-03-31T00:22:27.669Z,4.42
2019-03-31T00:25:01.206Z,4.37
2019-03-31T00:27:33.592Z,4.36
2019-03-31T00:30:06.366Z,4.33
2019-03-31T00:32:39.500Z,4.36
2019-03-31T00:35:12.940Z,4.26
2019-03-31T00:37:45.203Z,4.26
2019-03-31T00:40:17.627Z,4.23
2019-03-31T00:42:49.941Z,4.19
2019-03-31T00:45:22.178Z,4.18
2019-03-31T00:47:54.725Z,4.22
2019-03-31T00:50:28.181Z,4.19
2019-03-31T00:53:00.544Z,4.16
2019-03-31T00:55:32.739Z,4.18
2019-03-31T00:58:05.014Z,4.17
2019-03-31T01:00:54.950Z,4.12
2019-03-31T01:03:28.958Z,4.10
2019-03-31T01:06:02.533Z,3.97
2019-03-31T01:08:37.745Z,3.98
2019-03-31T01:11:17.582Z,4.01
2019-03-31T01:13:50.057Z,3.97
2019-03-31T01:16:24.309Z,3.92
2019-03-31T01:18:56.576Z,3.96
2019-03-31T01:21:29.010Z,3.89
2019-03-31T01:24:01.302Z,3.90
2019-03-31T01:26:35.465Z,3.89
2019-03-31T01:29:08.063Z,3.88
2019-03-31T01:31:50.290Z,3.80
2019-03-31T01:34:17.134Z,3.75
2019-03-31T01:36:52.630Z,3.78
2019-03-31T01:39:27.481Z,3.84
2019-03-31T01:42:01.992Z,3.82
2019-03-31T01:44:36.878Z,3.85
2019-03-31T01:47:10.134Z,3.88
2019-03-31T01:49:43.538Z,3.90
2019-03-31T01:52:15.846Z,3.86
2019-03-31T01:54:48.027Z,3.85
2019-03-31T01:57:20.317Z,3.77
2019-03-31T01:59:52.432Z,3.71
2019-03-31T02:02:30.330Z,3.72
2019-03-31T02:05:02.790Z,3.79
2019-03-31T02:07:36.004Z,3.79
2019-03-31T02:10:10.644Z,3.80
2019-03-31T02:12:42.959Z,3.75
2019-03-31T02:15:15.789Z,3.65
2019-03-31T02:17:48.026Z,3.54
2019-03-31T02:20:20.789Z,3.50
2019-03-31T02:22:53.151Z,3.48
2019-03-31T02:25:26.487Z,3.52
2019-03-31T02:27:59.335Z,3.44
2019-03-31T02:30:31.590Z,3.49
2019-03-31T02:33:03.887Z,3.49
2019-03-31T02:35:36.176Z,3.52
2019-03-31T02:38:08.550Z,3.55
2019-03-31T02:40:40.922Z,3.59
2019-03-31T02:43:13.221Z,3.38
2019-03-31T02:45:45.495Z,3.39
2019-03-31T02:48:17.798Z,3.43
2019-03-31T02:50:51.757Z,3.49
2019-03-31T02:53:25.671Z,3.46
2019-03-31T02:56:00.025Z,3.42
2019-03-31T02:58:33.193Z,3.41
2019-03-31T03:01:05.648Z,3.36
2019-03-31T03:03:40.516Z,3.34
2019-03-31T03:06:16.164Z,3.29
2019-03-31T03:08:50.772Z,3.34
2019-03-31T03:11:24.960Z,3.36
2019-03-31T03:14:00.432Z,3.33
2019-03-31T03:16:33.376Z,3.08
2019-03-31T03:19:06.208Z,3.12
2019-03-31T03:21:38.590Z,2.95
2019-03-31T03:24:10.950Z,2.92
2019-03-31T03:26:43.876Z,2.92
2019-03-31T03:29:16.196Z,2.88
2019-03-31T03:31:50.461Z,2.84
2019-03-31T03:34:25.664Z,2.86
2019-03-31T03:36:59.418Z,2.86
2019-03-31T03:39:33.010Z,2.95
2019-03-31T03:42:07.022Z,3.04
2019-03-31T03:44:39.932Z,3.14
2019-03-31T03:47:12.184Z,3.20
2019-03-31T03:49:44.450Z,3.29
2019-03-31T03:52:18.525Z,3.21
2019-03-31T03:54:53.105Z,3.14
2019-03-31T03:57:25.564Z,3.23
2019-03-31T03:59:57.871Z,3.31
2019-03-31T04:02:30.140Z,3.30
2019-03-31T04:05:02.413Z,3.28
2019-03-31T04:07:34.797Z,3.24
2019-03-31T04:10:11.396Z,3.31
2019-03-31T04:12:44.118Z,3.31
2019-03-31T04:15:16.454Z,3.34
2019-03-31T04:17:48.782Z,3.41
2019-03-31T04:20:20.939Z,3.51
2019-03-31T04:22:53.241Z,3.64
2019-03-31T04:25:25.552Z,3.73
2019-03-31T04:27:57.807Z,3.83
2019-03-31T04:30:29.942Z,3.91
2019-03-31T04:33:03.311Z,4.01
2019-03-31T04:35:35.739Z,4.00
2019-03-31T04:38:08.139Z,4.00
2019-03-31T04:40:40.384Z,4.08
2019-03-31T04:43:12.650Z,4.09
2019-03-31T04:45:46.142Z,4.14
2019-03-31T04:48:18.507Z,4.20
2019-03-31T04:50:52.271Z,4.29
2019-03-31T04:53:24.624Z,4.40
2019-03-31T04:55:56.964Z,4.51
2019-03-31T04:58:29.328Z,4.61
2019-03-31T05:01:02.313Z,4.74
2019-03-31T05:03:34.773Z,4.84
2019-03-31T05:06:07.098Z,5.02
2019-03-31T05:08:39.307Z,5.12
2019-03-31T05:11:11.981Z,5.23
2019-03-31T05:13:44.430Z,5.36
2019-03-31T05:16:16.752Z,5.54
2019-03-31T05:18:49.945Z,5.71
2019-03-31T05:21:22.286Z,5.83
2019-03-31T05:23:54.666Z,5.95
2019-03-31T05:26:27.190Z,6.08
2019-03-31T05:28:59.562Z,6.22
2019-03-31T05:31:31.760Z,6.36
2019-03-31T05:34:18.131Z,6.48
2019-03-31T05:36:38.093Z,6.63
2019-03-31T05:39:12.711Z,6.76
2019-03-31T05:41:49.120Z,6.89
2019-03-31T05:44:23.484Z,7.02
2019-03-31T05:46:55.772Z,7.21
2019-03-31T05:49:28.113Z,7.43
2019-03-31T05:52:05.067Z,7.63
2019-03-31T05:54:39.574Z,7.84
2019-03-31T05:57:12.398Z,8.03
2019-03-31T05:59:45.255Z,8.11
2019-03-31T06:02:17.462Z,8.25
2019-03-31T06:04:49.690Z,8.49
2019-03-31T06:07:21.942Z,8.67
2019-03-31T06:09:54.315Z,8.85
2019-03-31T06:12:30.321Z,8.98
2019-03-31T06:15:03.035Z,9.06
2019-03-31T06:17:38.913Z,9.22
2019-03-31T06:20:14.797Z,9.26
2019-03-31T06:22:50.410Z,9.42
2019-03-31T06:25:22.695Z,9.56
2019-03-31T06:27:54.980Z,9.58
2019-03-31T06:30:27.428Z,9.68
2019-03-31T06:32:59.592Z,9.89
2019-03-31T06:35:31.856Z,9.89
2019-03-31T06:38:05.536Z,10.06
2019-03-31T06:40:40.057Z,10.17
2019-03-31T06:43:12.455Z,10.33
2019-03-31T06:45:45.014Z,10.53
2019-03-31T06:48:17.407Z,10.70
2019-03-31T06:50:53.595Z,10.78
2019-03-31T06:53:27.354Z,10.77
2019-03-31T06:56:01.227Z,10.67
2019-03-31T06:58:37.527Z,10.83
2019-03-31T07:01:11.074Z,10.83
2019-03-31T07:03:43.800Z,11.10
2019-03-31T07:06:18.485Z,11.10
2019-03-31T07:08:51.952Z,11.35
2019-03-31T07:11:24.198Z,11.44
2019-03-31T07:13:56.632Z,11.49
2019-03-31T07:16:29.058Z,11.64
2019-03-31T07:19:01.476Z,11.57
2019-03-31T07:21:34.662Z,11.52
2019-03-31T07:24:07.007Z,11.77
2019-03-31T07:26:39.270Z,11.83
2019-03-31T07:29:12.670Z,11.87
2019-03-31T07:31:45.035Z,11.94
2019-03-31T07:34:19.037Z,12.05
2019-03-31T07:36:54.183Z,12.38
2019-03-31T07:39:27.280Z,12.38
2019-03-31T07:42:01.248Z,12.58
2019-03-31T07:44:33.902Z,12.83
2019-03-31T07:47:09.136Z,12.91
2019-03-31T07:49:42.850Z,12.98
2019-03-31T07:52:19.116Z,13.15
2019-03-31T07:54:53.390Z,13.31
2019-03-31T07:57:25.882Z,13.22
2019-03-31T07:59:58.194Z,13.32
2019-03-31T08:02:33.383Z,13.58
2019-03-31T08:05:07.831Z,13.64
2019-03-31T08:07:41.580Z,13.67
2019-03-31T08:10:14.284Z,13.70
2019-03-31T08:12:46.695Z,13.79
2019-03-31T08:15:19.244Z,13.84
2019-03-31T08:17:52.699Z,13.88
2019-03-31T08:20:25.176Z,13.90
2019-03-31T08:22:57.516Z,14.01
2019-03-31T08:25:29.949Z,13.99
2019-03-31T08:28:02.213Z,14.13
2019-03-31T08:30:34.490Z,14.43
2019-03-31T08:33:06.886Z,14.80
2019-03-31T08:35:47.170Z,14.94
2019-03-31T08:38:14.650Z,14.90
2019-03-31T08:40:46.892Z,14.97
2019-03-31T08:43:20.639Z,15.33
2019-03-31T08:45:54.518Z,15.32
2019-03-31T08:48:27.331Z,15.36
2019-03-31T08:51:01.309Z,15.67
2019-03-31T08:53:33.750Z,15.71
2019-03-31T08:56:12.150Z,15.73
2019-03-31T08:58:44.542Z,15.80
2019-03-31T09:01:18.033Z,15.40
2019-03-31T09:03:51.539Z,15.38
2019-03-31T09:06:27.199Z,15.56
2019-03-31T09:08:59.535Z,15.56
2019-03-31T09:11:35.544Z,15.62
2019-03-31T09:14:09.527Z,16.18
2019-03-31T09:16:41.800Z,16.08
2019-03-31T09:19:17.318Z,15.90
2019-03-31T09:21:51.776Z,16.28
2019-03-31T09:24:25.690Z,16.26
2019-03-31T09:27:00.790Z,16.55
2019-03-31T09:29:33.006Z,16.67
2019-03-31T09:32:05.807Z,16.76
2019-03-31T09:34:40.208Z,16.94
2019-03-31T09:37:13.092Z,17.41
2019-03-31T09:39:46.856Z,17.11
2019-03-31T09:42:20.177Z,17.09
2019-03-31T09:44:53.781Z,16.79
2019-03-31T09:47:27.193Z,17.14
2019-03-31T09:49:59.550Z,17.23
2019-03-31T09:52:33.208Z,17.56
2019-03-31T09:55:06.644Z,17.43
2019-03-31T09:57:41.814Z,17.89
2019-03-31T10:00:14.903Z,17.70
2019-03-31T10:02:47.633Z,17.78
2019-03-31T10:05:21.777Z,17.87
2019-03-31T10:07:55.362Z,17.72
2019-03-31T10:10:40.708Z,17.80
2019-03-31T10:13:14.624Z,17.58
2019-03-31T10:15:46.945Z,17.85
2019-03-31T10:18:19.303Z,18.09
2019-03-31T10:20:51.916Z,18.29
2019-03-31T10:23:25.468Z,18.24
2019-03-31T10:25:59.387Z,18.29
2019-03-31T10:28:32.820Z,18.66
2019-03-31T10:31:05.696Z,18.99
2019-03-31T10:33:39.474Z,18.57
2019-03-31T10:36:15.252Z,18.51
2019-03-31T10:38:47.895Z,18.08
2019-03-31T10:41:21.467Z,17.82
2019-03-31T10:43:53.924Z,17.78
2019-03-31T10:46:30.187Z,17.94
2019-03-31T10:49:02.280Z,17.93
2019-03-31T10:51:34.908Z,17.96
2019-03-31T10:54:09.872Z,18.53
2019-03-31T10:56:42.357Z,18.38
2019-03-31T10:59:14.742Z,18.60
2019-03-31T11:01:47.168Z,18.80
2019-03-31T11:04:19.579Z,18.58
2019-03-31T11:06:58.964Z,18.03
2019-03-31T11:09:25.809Z,17.92
2019-03-31T11:11:58.163Z,17.84
2019-03-31T11:14:30.459Z,17.58
2019-03-31T11:17:02.719Z,17.82
2019-03-31T11:19:34.952Z,17.57
2019-03-31T11:22:17.117Z,17.95
2019-03-31T11:24:49.322Z,18.13
2019-03-31T11:27:21.609Z,18.19
2019-03-31T11:29:53.807Z,17.52
2019-03-31T11:32:26.148Z,17.61
2019-03-31T11:34:59.670Z,17.75
2019-03-31T11:37:32.123Z,17.50
2019-03-31T11:40:04.586Z,17.77
2019-03-31T11:42:37.034Z,17.39
2019-03-31T11:45:09.623Z,17.31
2019-03-31T11:47:41.922Z,17.51
2019-03-31T11:50:14.841Z,17.38
2019-03-31T11:54:00.705Z,17.43
2019-03-31T11:56:34.663Z,17.53
2019-03-31T11:59:07.014Z,17.72
2019-03-31T12:01:39.328Z,17.35
2019-03-31T12:04:12.300Z,16.91
2019-03-31T12:06:46.214Z,16.68
2019-03-31T12:09:18.581Z,16.46
2019-03-31T12:11:52.076Z,16.28
2019-03-31T12:14:26.082Z,15.96
2019-03-31T12:17:01.061Z,16.14
2019-03-31T12:19:35.198Z,16.34
2019-03-31T12:22:07.477Z,15.56
2019-03-31T12:24:41.382Z,15.51
2019-03-31T12:27:14.444Z,15.16
2019-03-31T12:29:48.401Z,14.90
2019-03-31T12:32:20.586Z,14.59
2019-03-31T12:34:52.785Z,14.34
2019-03-31T12:37:24.911Z,14.26
2019-03-31T12:39:57.954Z,14.21
2019-03-31T12:42:30.168Z,14.29
2019-03-31T12:45:04.730Z,14.37
2019-03-31T12:47:39.578Z,14.32
2019-03-31T12:50:15.499Z,14.27
2019-03-31T12:52:51.040Z,14.35
2019-03-31T12:55:24.040Z,14.27
2019-03-31T12:57:56.140Z,14.11
2019-03-31T13:00:28.506Z,14.07
2019-03-31T13:03:01.176Z,13.85
2019-03-31T13:05:36.492Z,13.66
2019-03-31T13:08:13.340Z,13.58
2019-03-31T13:10:45.642Z,13.50
2019-03-31T13:13:18.078Z,13.35
2019-03-31T13:15:50.409Z,13.13
2019-03-31T13:18:22.874Z,13.02
2019-03-31T13:20:55.185Z,12.94
2019-03-31T13:23:27.511Z,12.89
2019-03-31T13:26:00.069Z,12.63
2019-03-31T13:28:32.320Z,12.32
2019-03-31T13:31:04.604Z,12.31
2019-03-31T13:33:37.040Z,12.07
2019-03-31T13:36:09.367Z,12.00
2019-03-31T13:38:41.711Z,11.96
2019-03-31T13:41:14.054Z,11.91
2019-03-31T13:43:46.367Z,11.84
2019-03-31T13:46:20.508Z,11.79
2019-03-31T13:48:52.778Z,11.55
2019-03-31T13:51:25.056Z,11.38
2019-03-31T13:54:01.031Z,11.38
2019-03-31T13:56:33.790Z,11.33
2019-03-31T13:59:09.234Z,11.35
2019-03-31T14:01:44.354Z,11.37
2019-03-31T14:04:16.673Z,11.25
2019-03-31T14:06:49.502Z,11.29
2019-03-31T14:09:21.598Z,11.19
2019-03-31T14:11:53.820Z,11.19
2019-03-31T14:14:26.756Z,11.15
2019-03-31T14:17:01.076Z,11.19
2019-03-31T14:19:34.793Z,11.16
2019-03-31T14:22:07.058Z,10.98
2019-03-31T14:24:39.503Z,10.95
2019-03-31T14:27:11.846Z,10.91
2019-03-31T14:29:44.439Z,10.79
2019-03-31T14:32:18.186Z,10.79
2019-03-31T14:34:50.806Z,10.71
2019-03-31T14:37:27.954Z,10.71
2019-03-31T14:40:00.978Z,10.85
2019-03-31T14:42:33.858Z,10.80
2019-03-31T14:45:06.528Z,10.80
2019-03-31T14:47:38.808Z,10.78
2019-03-31T14:50:16.027Z,10.76
2019-03-31T14:52:49.769Z,10.67
2019-03-31T14:55:22.907Z,10.57
2019-03-31T14:57:55.808Z,10.62
2019-03-31T15:00:29.073Z,10.55
2019-03-31T15:03:01.683Z,10.48
2019-03-31T15:05:34.063Z,10.49
2019-03-31T15:08:06.495Z,10.46
2019-03-31T15:10:40.435Z,10.45
2019-03-31T15:13:12.691Z,10.45
2019-03-31T15:15:45.022Z,10.39
2019-03-31T15:18:17.140Z,10.33
2019-03-31T15:20:49.395Z,10.20
2019-03-31T15:23:29.364Z,10.27
2019-03-31T15:26:04.344Z,10.29
2019-03-31T15:28:37.893Z,10.20
2019-03-31T15:31:11.633Z,10.17
2019-03-31T15:33:43.820Z,10.14
2019-03-31T15:36:16.228Z,9.98
2019-03-31T15:38:49.177Z,9.90
2019-03-31T15:41:22.086Z,9.81
2019-03-31T15:43:54.499Z,9.71
2019-03-31T15:46:29.875Z,9.63
2019-03-31T15:49:02.905Z,9.53
2019-03-31T15:51:35.316Z,9.43
2019-03-31T15:54:08.372Z,9.42
2019-03-31T15:56:42.639Z,9.30
2019-03-31T15:59:15.442Z,9.29
2019-03-31T16:01:48.457Z,9.29
2019-03-31T16:04:20.832Z,9.17
2019-03-31T16:06:53.144Z,9.12
2019-03-31T16:09:27.830Z,9.06
2019-03-31T16:12:02.220Z,9.07
2019-03-31T16:14:34.006Z,9.01
2019-03-31T16:17:06.492Z,8.94
2019-03-31T16:19:38.299Z,8.83
2019-03-31T16:22:11.128Z,8.88
2019-03-31T16:24:48.313Z,8.88
2019-03-31T16:27:20.069Z,8.72
2019-03-31T16:29:52.997Z,8.52
2019-03-31T16:32:25.328Z,8.50
2019-03-31T16:34:59.399Z,8.51
2019-03-31T16:37:32.335Z,8.48
2019-03-31T16:40:05.800Z,8.55
2019-03-31T16:42:38.092Z,8.51
2019-03-31T16:45:11.289Z,8.52
2019-03-31T16:47:43.624Z,8.65
2019-03-31T16:50:17.200Z,8.60
2019-03-31T16:52:52.616Z,8.52
2019-03-31T16:55:24.720Z,8.51
2019-03-31T16:57:56.714Z,8.39
2019-03-31T17:00:28.509Z,8.27
2019-03-31T17:03:00.387Z,8.30
2019-03-31T17:05:32.212Z,8.27
2019-03-31T17:08:04.011Z,8.34
2019-03-31T17:10:35.813Z,8.31
2019-03-31T17:13:07.757Z,8.22
2019-03-31T17:15:41.451Z,8.14
2019-03-31T17:18:13.297Z,7.92
2019-03-31T17:20:45.208Z,7.90
2019-03-31T17:23:17.037Z,7.81
2019-03-31T17:25:48.798Z,7.83
2019-03-31T17:28:20.319Z,7.80
2019-03-31T17:30:52.003Z,7.78
2019-03-31T17:33:24.737Z,7.80
2019-03-31T17:35:56.390Z,7.82
2019-03-31T17:38:28.233Z,7.73
2019-03-31T17:41:03.044Z,7.78
2019-03-31T17:43:35.846Z,7.63
2019-03-31T17:46:07.642Z,7.63
2019-03-31T17:48:39.353Z,7.73
2019-03-31T17:51:11.070Z,7.77
2019-03-31T17:53:42.794Z,7.72
2019-03-31T17:56:14.719Z,7.76
2019-03-31T17:58:46.562Z,7.73
2019-03-31T18:01:18.333Z,7.80
2019-03-31T18:03:50.189Z,7.90
2019-03-31T18:06:22.514Z,7.97
2019-03-31T18:08:54.711Z,8.03
2019-03-31T18:11:27.023Z,8.01
2019-03-31T18:14:00.237Z,7.98
2019-03-31T18:16:31.951Z,8.00
2019-03-31T18:19:03.729Z,8.08
2019-03-31T18:21:35.394Z,8.10
2019-03-31T18:24:07.732Z,8.08
2019-03-31T18:26:39.356Z,8.16
2019-03-31T18:29:11.799Z,8.22
2019-03-31T18:31:44.102Z,8.25
2019-03-31T18:34:16.413Z,8.21
2019-03-31T18:36:48.103Z,8.30
2019-03-31T18:39:21.653Z,8.22
2019-03-31T18:41:53.413Z,8.25
2019-03-31T18:44:25.091Z,8.24
2019-03-31T18:46:57.438Z,8.10
2019-03-31T18:49:29.177Z,8.10
2019-03-31T18:52:00.845Z,8.10
2019-03-31T18:55:09.614Z,8.18
2019-03-31T18:57:55.107Z,8.17
2019-03-31T19:00:57.613Z,8.21
2019-03-31T19:03:41.326Z,8.14
2019-03-31T19:06:41.499Z,8.12
2019-03-31T19:09:43.769Z,8.17
2019-03-31T19:12:50.442Z,8.19
2019-03-31T19:15:47.622Z,8.15
2019-03-31T19:18:50.423Z,8.05
2019-03-31T19:21:44.107Z,8.05
2019-03-31T19:24:27.238Z,7.98
2019-03-31T19:27:08.553Z,7.96
2019-03-31T19:30:07.955Z,7.95
2019-03-31T19:33:05.715Z,7.92
2019-03-31T19:35:49.426Z,7.95
2019-03-31T19:38:42.892Z,7.91
2019-03-31T19:41:24.804Z,7.68
2019-03-31T19:44:15.377Z,7.66
2019-03-31T19:47:06.332Z,7.62
2019-03-31T19:49:51.553Z,7.69
2019-03-31T19:52:30.487Z,7.69
2019-03-31T19:55:14.396Z,7.64
2019-03-31T19:58:05.520Z,7.63
2019-03-31T20:00:43.322Z,7.58
2019-03-31T20:03:37.248Z,7.54
2019-03-31T20:06:31.894Z,7.52
2019-03-31T20:09:25.610Z,7.51
2019-03-31T20:12:18.930Z,7.45
2019-03-31T20:15:27.556Z,7.42
2019-03-31T20:18:13.879Z,7.41
2019-03-31T20:21:13.439Z,7.38
2019-03-31T20:24:03.779Z,7.35
2019-03-31T20:26:53.340Z,7.23
2019-03-31T20:29:47.668Z,7.21
2019-03-31T20:32:44.457Z,7.05
2019-03-31T20:35:34.588Z,7.02
2019-03-31T20:38:25.300Z,7.06
2019-03-31T20:41:06.492Z,7.06
2019-03-31T20:43:46.527Z,7.11
2019-03-31T20:46:19.334Z,7.07
2019-03-31T20:48:52.086Z,7.07
2019-03-31T20:51:24.094Z,6.94
2019-03-31T20:53:57.017Z,6.78
2019-03-31T20:56:30.013Z,6.72
2019-03-31T20:59:01.873Z,6.70
2019-03-31T21:01:33.792Z,6.67
2019-03-31T21:04:05.971Z,6.72
2019-03-31T21:06:37.770Z,6.71
2019-03-31T21:09:12.957Z,6.70
2019-03-31T21:11:44.953Z,6.70
2019-03-31T21:14:18.387Z,6.67
2019-03-31T21:16:51.059Z,6.66
2019-03-31T21:19:23.347Z,6.59
2019-03-31T21:21:57.046Z,6.54
2019-03-31T21:24:28.925Z,6.55
2019-03-31T21:27:00.632Z,6.54
2019-03-31T21:29:33.091Z,6.54
2019-03-31T21:32:05.943Z,6.60
2019-03-31T21:34:37.688Z,6.60
2019-03-31T21:37:09.494Z,6.61
2019-03-31T21:39:41.235Z,6.60
2019-03-31T21:42:13.059Z,6.56
2019-03-31T21:47:15.296Z,6.58
2019-03-31T21:49:46.891Z,6.55
2019-03-31T21:52:18.590Z,6.55
2019-03-31T21:54:50.752Z,6.50
2019-03-31T21:57:22.506Z,6.49
2019-03-31T21:59:54.245Z,6.55
2019-03-31T22:02:27.128Z,6.51
2019-03-31T22:04:59.041Z,6.54
2019-03-31T22:07:30.752Z,6.53
2019-03-31T22:10:03.189Z,6.39
2019-03-31T22:12:36.451Z,6.37
2019-03-31T22:15:10.792Z,6.35
2019-03-31T22:17:42.459Z,6.35
2019-03-31T22:20:15.036Z,6.35
2019-03-31T22:22:47.439Z,6.36
2019-03-31T22:25:19.008Z,6.20
2019-03-31T22:27:52.090Z,6.23
2019-03-31T22:30:23.853Z,6.13
2019-03-31T22:32:55.571Z,6.03
2019-03-31T22:35:27.597Z,6.17
2019-03-31T22:38:02.678Z,6.16
2019-03-31T22:40:35.310Z,6.18
2019-03-31T22:43:07.896Z,6.15
2019-03-31T22:45:39.932Z,6.19
2019-03-31T22:48:12.220Z,6.22
2019-03-31T22:50:43.890Z,6.19
2019-03-31T22:53:15.588Z,6.13
2019-03-31T22:55:49.747Z,6.19
2019-03-31T22:58:21.933Z,6.26
2019-03-31T23:00:54.220Z,6.19
2019-03-31T23:03:26.141Z,6.17
2019-03-31T23:05:57.803Z,6.24
2019-03-31T23:08:29.395Z,6.24
2019-03-31T23:11:01.272Z,6.27
2019-03-31T23:13:32.905Z,6.22
2019-03-31T23:16:06.865Z,6.18
2019-03-31T23:18:38.605Z,6.28
2019-03-31T23:21:10.927Z,6.29
2019-03-31T23:23:43.073Z,6.30
2019-03-31T23:26:15.198Z,6.28
2019-03-31T23:28:48.443Z,6.28
2019-03-31T23:31:20.715Z,6.32
2019-03-31T23:33:53.109Z,6.34
2019-03-31T23:36:26.365Z,6.37
2019-03-31T23:38:58.783Z,6.35
2019-03-31T23:41:30.583Z,6.39
2019-03-31T23:44:02.173Z,6.39
2019-03-31T23:46:33.825Z,6.39
2019-03-31T23:49:05.531Z,6.31
2019-03-31T23:51:37.174Z,6.26
2019-03-31T23:54:08.774Z,6.24
2019-03-31T23:56:41.981Z,6.25
2019-03-31T23:59:14.188Z,6.23
